Airfield :
LOGIN :

Register | Disclaimer

   EN    FR    IT 

 










Legend :    VFR   Marginal VFR   IFR   Intensive IFR   Very Intensive IFR
Visi :
Ceiling :
>= 8 km
>= 3000ft
5 to 8 km
1000 to 3000 ft
1500m to 5 km
500 to 1000 ft
800 to 1500m
200 to 500 ft
< 800m
< 200 ft
Symbols :   Thunderstorms  Fog  Heavy snow  Heavy precipitations  Wind > 20 kt
SIGMETs :     Misc.  Thunderstorms  Icing  Turbulence  Mountain Waves  Volcanic Ashes







- Airport Elevation : 433 ft
- IATA code : CCF
- Download approach charts


LFMK - Carcassonne

CURRENT METAR :
  • 241000Z AUTO 30007KT 270V350 9999 SCT009 19/16 Q1020 TEMPO BKN007

EXPIRED METARs :
  • 240930Z AUTO 30006KT 270V340 9999 BKN008 19/16 Q1020 BECMG NSC
  • 240900Z AUTO 31008KT 270V330 8000 BKN007 18/16 Q1020 BECMG NSC
  • 240830Z AUTO 29008KT 260V320 8000 SCT008 17/15 Q1020 NOSIG
  • 240800Z AUTO 28008KT 250V320 8000 SCT005 16/15 Q1020 NOSIG
  • 240730Z AUTO 28006KT 260V320 7000 BKN004 BKN008 15/14 Q1020 BECMG NSC

TAF AMD TAF LFMK
Valid from the 24 at 09:00 until the 25 at 09:00 UTC


240922Z 2409/2509 27010KT CAVOK
TEMPO 2409/2411 7000 BKN007
TEMPO 2416/2503 VRB03KT
TEMPO 2504/2507 2000 BR BKN006
BECMG 2507/2509 27015G25KT BKN020
No reported NOTAMs for that airfield.



MET'MAP, your aeronautical weather chart ! - Copyright ORBIFLY December 2007 - Disclaimer

ORBIFLY MET'MAP TEAM :

Programming & Development : Alexandra Zaïnal
Concept & Development : Baudouin d'Aumeries
Co-Development & Prog : Marc-Olivier Méhu
Technical & hardware support : Manuel Goepfert

Contact : metmap@orbifly.com




SOURCES & CREDITS :

   NOAA